sensor_id;sensor_type;location;lat;lon;timestamp;P1;durP1;ratioP1;P2;durP2;ratioP2
59302;SDS011;45074;52.764;6.896;2023-10-19T00:00:39;20.35;;;13.02;;
59302;SDS011;45074;52.764;6.896;2023-10-19T00:03:06;22.50;;;14.23;;
59302;SDS011;45074;52.764;6.896;2023-10-19T00:05:32;22.42;;;13.98;;
59302;SDS011;45074;52.764;6.896;2023-10-19T00:08:01;24.83;;;15.50;;
59302;SDS011;45074;52.764;6.896;2023-10-19T00:10:40;22.80;;;15.07;;
59302;SDS011;45074;52.764;6.896;2023-10-19T00:13:13;21.73;;;14.30;;
59302;SDS011;45074;52.764;6.896;2023-10-19T00:15:39;21.15;;;14.18;;
59302;SDS011;45074;52.764;6.896;2023-10-19T00:18:07;21.77;;;13.73;;
59302;SDS011;45074;52.764;6.896;2023-10-19T00:20:43;23.27;;;15.38;;
59302;SDS011;45074;52.764;6.896;2023-10-19T00:23:11;23.92;;;15.25;;
59302;SDS011;45074;52.764;6.896;2023-10-19T00:25:46;23.05;;;14.75;;
59302;SDS011;45074;52.764;6.896;2023-10-19T00:28:16;22.08;;;14.77;;
59302;SDS011;45074;52.764;6.896;2023-10-19T00:30:43;22.73;;;15.15;;
59302;SDS011;45074;52.764;6.896;2023-10-19T00:33:10;25.23;;;15.50;;
59302;SDS011;45074;52.764;6.896;2023-10-19T00:35:45;24.55;;;15.70;;
59302;SDS011;45074;52.764;6.896;2023-10-19T00:38:25;25.33;;;16.35;;
59302;SDS011;45074;52.764;6.896;2023-10-19T00:40:52;25.00;;;15.93;;
59302;SDS011;45074;52.764;6.896;2023-10-19T00:43:30;25.10;;;15.82;;
59302;SDS011;45074;52.764;6.896;2023-10-19T00:46:01;24.50;;;16.48;;
59302;SDS011;45074;52.764;6.896;2023-10-19T00:48:34;26.20;;;16.63;;
59302;SDS011;45074;52.764;6.896;2023-10-19T00:51:01;25.90;;;17.45;;
59302;SDS011;45074;52.764;6.896;2023-10-19T00:53:47;23.85;;;16.80;;
59302;SDS011;45074;52.764;6.896;2023-10-19T00:56:14;25.08;;;16.95;;
59302;SDS011;45074;52.764;6.896;2023-10-19T00:58:43;26.13;;;17.67;;
59302;SDS011;45074;52.764;6.896;2023-10-19T01:01:18;26.50;;;18.23;;
59302;SDS011;45074;52.764;6.896;2023-10-19T01:03:47;27.88;;;18.73;;
59302;SDS011;45074;52.764;6.896;2023-10-19T01:06:17;29.00;;;18.65;;
59302;SDS011;45074;52.764;6.896;2023-10-19T01:08:45;26.15;;;19.13;;
59302;SDS011;45074;52.764;6.896;2023-10-19T01:11:11;27.50;;;18.98;;
59302;SDS011;45074;52.764;6.896;2023-10-19T01:13:41;28.08;;;18.73;;
59302;SDS011;45074;52.764;6.896;2023-10-19T01:16:15;27.48;;;17.70;;
59302;SDS011;45074;52.764;6.896;2023-10-19T01:18:54;28.10;;;18.20;;
59302;SDS011;45074;52.764;6.896;2023-10-19T01:21:21;24.38;;;17.48;;
59302;SDS011;45074;52.764;6.896;2023-10-19T01:23:50;26.58;;;17.73;;
59302;SDS011;45074;52.764;6.896;2023-10-19T01:26:16;27.30;;;17.73;;
59302;SDS011;45074;52.764;6.896;2023-10-19T01:28:51;29.83;;;18.33;;
59302;SDS011;45074;52.764;6.896;2023-10-19T01:31:23;27.15;;;18.42;;
59302;SDS011;45074;52.764;6.896;2023-10-19T01:33:52;27.73;;;18.05;;
59302;SDS011;45074;52.764;6.896;2023-10-19T01:36:21;26.00;;;17.80;;
59302;SDS011;45074;52.764;6.896;2023-10-19T01:38:47;27.50;;;18.00;;
59302;SDS011;45074;52.764;6.896;2023-10-19T01:41:13;27.20;;;18.83;;
59302;SDS011;45074;52.764;6.896;2023-10-19T01:43:41;25.27;;;18.02;;
59302;SDS011;45074;52.764;6.896;2023-10-19T01:46:08;24.95;;;17.15;;
59302;SDS011;45074;52.764;6.896;2023-10-19T01:48:42;26.92;;;17.20;;
59302;SDS011;45074;52.764;6.896;2023-10-19T01:51:11;28.52;;;20.10;;
59302;SDS011;45074;52.764;6.896;2023-10-19T01:53:39;28.70;;;19.55;;
59302;SDS011;45074;52.764;6.896;2023-10-19T01:56:09;28.17;;;19.17;;
59302;SDS011;45074;52.764;6.896;2023-10-19T01:58:38;26.13;;;17.27;;
59302;SDS011;45074;52.764;6.896;2023-10-19T02:01:04;25.65;;;17.95;;
59302;SDS011;45074;52.764;6.896;2023-10-19T02:03:40;28.60;;;18.63;;
59302;SDS011;45074;52.764;6.896;2023-10-19T02:06:13;27.80;;;18.83;;
59302;SDS011;45074;52.764;6.896;2023-10-19T02:08:44;25.77;;;17.92;;
59302;SDS011;45074;52.764;6.896;2023-10-19T02:11:20;26.08;;;17.38;;
59302;SDS011;45074;52.764;6.896;2023-10-19T02:13:51;27.17;;;18.05;;
59302;SDS011;45074;52.764;6.896;2023-10-19T02:16:19;26.63;;;17.23;;
59302;SDS011;45074;52.764;6.896;2023-10-19T02:18:49;27.45;;;17.65;;
59302;SDS011;45074;52.764;6.896;2023-10-19T02:21:15;24.77;;;17.17;;
59302;SDS011;45074;52.764;6.896;2023-10-19T02:23:47;24.35;;;17.23;;
59302;SDS011;45074;52.764;6.896;2023-10-19T02:26:15;23.75;;;17.08;;
59302;SDS011;45074;52.764;6.896;2023-10-19T02:28:41;27.27;;;17.73;;
59302;SDS011;45074;52.764;6.896;2023-10-19T02:31:09;25.13;;;17.23;;
59302;SDS011;45074;52.764;6.896;2023-10-19T02:33:54;22.40;;;15.35;;
59302;SDS011;45074;52.764;6.896;2023-10-19T02:36:26;24.05;;;15.82;;
59302;SDS011;45074;52.764;6.896;2023-10-19T02:39:02;22.42;;;15.68;;
59302;SDS011;45074;52.764;6.896;2023-10-19T02:41:32;23.77;;;16.27;;
59302;SDS011;45074;52.764;6.896;2023-10-19T02:44:00;21.80;;;15.10;;
59302;SDS011;45074;52.764;6.896;2023-10-19T02:46:28;22.27;;;14.93;;
59302;SDS011;45074;52.764;6.896;2023-10-19T02:48:54;23.75;;;15.43;;
59302;SDS011;45074;52.764;6.896;2023-10-19T02:51:20;22.42;;;15.32;;
59302;SDS011;45074;52.764;6.896;2023-10-19T02:53:46;23.27;;;14.93;;
59302;SDS011;45074;52.764;6.896;2023-10-19T02:56:12;21.10;;;14.57;;
59302;SDS011;45074;52.764;6.896;2023-10-19T02:58:44;21.25;;;14.40;;
59302;SDS011;45074;52.764;6.896;2023-10-19T03:01:17;20.38;;;13.95;;
59302;SDS011;45074;52.764;6.896;2023-10-19T03:03:47;22.08;;;13.98;;
59302;SDS011;45074;52.764;6.896;2023-10-19T03:06:17;20.23;;;13.48;;
59302;SDS011;45074;52.764;6.896;2023-10-19T03:08:45;20.67;;;13.65;;
59302;SDS011;45074;52.764;6.896;2023-10-19T03:11:11;23.10;;;14.70;;
59302;SDS011;45074;52.764;6.896;2023-10-19T03:13:38;22.35;;;14.20;;
59302;SDS011;45074;52.764;6.896;2023-10-19T03:16:06;22.58;;;16.25;;
59302;SDS011;45074;52.764;6.896;2023-10-19T03:18:34;21.73;;;15.73;;
59302;SDS011;45074;52.764;6.896;2023-10-19T03:21:03;22.83;;;16.20;;
59302;SDS011;45074;52.764;6.896;2023-10-19T03:23:29;24.20;;;16.23;;
59302;SDS011;45074;52.764;6.896;2023-10-19T03:25:59;24.07;;;16.27;;
59302;SDS011;45074;52.764;6.896;2023-10-19T03:28:44;22.40;;;16.02;;
59302;SDS011;45074;52.764;6.896;2023-10-19T03:31:10;26.35;;;16.70;;
59302;SDS011;45074;52.764;6.896;2023-10-19T03:33:43;23.92;;;16.70;;
59302;SDS011;45074;52.764;6.896;2023-10-19T03:36:12;23.73;;;16.20;;
59302;SDS011;45074;52.764;6.896;2023-10-19T03:38:39;25.73;;;17.65;;
59302;SDS011;45074;52.764;6.896;2023-10-19T03:41:06;25.48;;;17.30;;
59302;SDS011;45074;52.764;6.896;2023-10-19T03:43:33;22.83;;;16.75;;
59302;SDS011;45074;52.764;6.896;2023-10-19T03:46:01;23.73;;;16.88;;
59302;SDS011;45074;52.764;6.896;2023-10-19T03:48:31;25.27;;;17.95;;
59302;SDS011;45074;52.764;6.896;2023-10-19T03:51:03;25.50;;;17.75;;
59302;SDS011;45074;52.764;6.896;2023-10-19T03:53:30;24.80;;;17.67;;
59302;SDS011;45074;52.764;6.896;2023-10-19T03:55:57;27.30;;;18.45;;
59302;SDS011;45074;52.764;6.896;2023-10-19T03:58:24;25.52;;;17.85;;
59302;SDS011;45074;52.764;6.896;2023-10-19T04:00:53;26.13;;;17.90;;
59302;SDS011;45074;52.764;6.896;2023-10-19T04:03:26;26.35;;;17.65;;
59302;SDS011;45074;52.764;6.896;2023-10-19T04:05:55;24.45;;;17.50;;
59302;SDS011;45074;52.764;6.896;2023-10-19T04:08:25;24.25;;;16.80;;
59302;SDS011;45074;52.764;6.896;2023-10-19T04:10:52;24.48;;;17.08;;
59302;SDS011;45074;52.764;6.896;2023-10-19T04:13:37;24.25;;;16.23;;
59302;SDS011;45074;52.764;6.896;2023-10-19T04:16:03;24.05;;;16.58;;
59302;SDS011;45074;52.764;6.896;2023-10-19T04:18:31;23.58;;;16.48;;
59302;SDS011;45074;52.764;6.896;2023-10-19T04:21:00;23.10;;;16.63;;
59302;SDS011;45074;52.764;6.896;2023-10-19T04:23:28;23.48;;;15.93;;
59302;SDS011;45074;52.764;6.896;2023-10-19T04:25:54;21.35;;;15.05;;
59302;SDS011;45074;52.764;6.896;2023-10-19T04:28:24;22.05;;;15.40;;
59302;SDS011;45074;52.764;6.896;2023-10-19T04:30:57;20.23;;;14.38;;
59302;SDS011;45074;52.764;6.896;2023-10-19T04:33:28;19.55;;;14.38;;
59302;SDS011;45074;52.764;6.896;2023-10-19T04:35:54;20.73;;;14.38;;
59302;SDS011;45074;52.764;6.896;2023-10-19T04:38:22;20.10;;;13.75;;
59302;SDS011;45074;52.764;6.896;2023-10-19T04:40:48;16.70;;;12.88;;
59302;SDS011;45074;52.764;6.896;2023-10-19T04:43:14;19.65;;;13.20;;
59302;SDS011;45074;52.764;6.896;2023-10-19T04:45:41;20.27;;;13.52;;
59302;SDS011;45074;52.764;6.896;2023-10-19T04:48:09;18.40;;;12.43;;
59302;SDS011;45074;52.764;6.896;2023-10-19T04:50:36;19.85;;;13.55;;
59302;SDS011;45074;52.764;6.896;2023-10-19T04:53:02;16.83;;;12.48;;
59302;SDS011;45074;52.764;6.896;2023-10-19T04:55:30;18.77;;;12.85;;
59302;SDS011;45074;52.764;6.896;2023-10-19T04:57:56;18.55;;;12.70;;
59302;SDS011;45074;52.764;6.896;2023-10-19T05:00:22;19.17;;;13.02;;
59302;SDS011;45074;52.764;6.896;2023-10-19T05:02:49;18.85;;;12.40;;
59302;SDS011;45074;52.764;6.896;2023-10-19T05:05:17;16.63;;;11.80;;
59302;SDS011;45074;52.764;6.896;2023-10-19T05:07:43;17.25;;;12.25;;
59302;SDS011;45074;52.764;6.896;2023-10-19T05:10:09;16.05;;;11.57;;
59302;SDS011;45074;52.764;6.896;2023-10-19T05:12:36;15.98;;;11.55;;
59302;SDS011;45074;52.764;6.896;2023-10-19T05:15:02;17.50;;;11.80;;
59302;SDS011;45074;52.764;6.896;2023-10-19T05:17:30;14.98;;;11.32;;
59302;SDS011;45074;52.764;6.896;2023-10-19T05:19:56;15.95;;;12.13;;
59302;SDS011;45074;52.764;6.896;2023-10-19T05:22:23;16.80;;;11.82;;
59302;SDS011;45074;52.764;6.896;2023-10-19T05:24:50;16.48;;;11.18;;
59302;SDS011;45074;52.764;6.896;2023-10-19T05:27:16;14.50;;;11.13;;
59302;SDS011;45074;52.764;6.896;2023-10-19T05:29:42;14.98;;;11.02;;
59302;SDS011;45074;52.764;6.896;2023-10-19T05:32:08;16.42;;;10.75;;
59302;SDS011;45074;52.764;6.896;2023-10-19T05:34:34;15.45;;;10.57;;
59302;SDS011;45074;52.764;6.896;2023-10-19T05:37:01;14.38;;;9.85;;
59302;SDS011;45074;52.764;6.896;2023-10-19T05:39:31;14.65;;;9.93;;
59302;SDS011;45074;52.764;6.896;2023-10-19T05:44:30;13.85;;;9.32;;
59302;SDS011;45074;52.764;6.896;2023-10-19T05:46:56;15.57;;;10.57;;
59302;SDS011;45074;52.764;6.896;2023-10-19T05:49:23;16.42;;;10.07;;
59302;SDS011;45074;52.764;6.896;2023-10-19T05:51:50;15.35;;;10.13;;
59302;SDS011;45074;52.764;6.896;2023-10-19T05:54:16;15.40;;;10.63;;
59302;SDS011;45074;52.764;6.896;2023-10-19T05:56:42;15.20;;;9.73;;
59302;SDS011;45074;52.764;6.896;2023-10-19T05:59:08;16.48;;;10.45;;
59302;SDS011;45074;52.764;6.896;2023-10-19T06:01:35;16.90;;;10.88;;
59302;SDS011;45074;52.764;6.896;2023-10-19T06:04:02;13.63;;;9.48;;
59302;SDS011;45074;52.764;6.896;2023-10-19T06:06:28;14.38;;;10.05;;
59302;SDS011;45074;52.764;6.896;2023-10-19T06:08:54;14.23;;;10.20;;
59302;SDS011;45074;52.764;6.896;2023-10-19T06:11:20;14.13;;;10.13;;
59302;SDS011;45074;52.764;6.896;2023-10-19T06:13:47;15.02;;;10.18;;
59302;SDS011;45074;52.764;6.896;2023-10-19T06:16:13;15.98;;;10.35;;
59302;SDS011;45074;52.764;6.896;2023-10-19T06:18:40;15.07;;;10.07;;
59302;SDS011;45074;52.764;6.896;2023-10-19T06:21:08;15.07;;;10.43;;
59302;SDS011;45074;52.764;6.896;2023-10-19T06:23:35;15.70;;;10.60;;
59302;SDS011;45074;52.764;6.896;2023-10-19T06:26:08;16.48;;;10.15;;
59302;SDS011;45074;52.764;6.896;2023-10-19T06:28:36;16.17;;;10.65;;
59302;SDS011;45074;52.764;6.896;2023-10-19T06:31:03;16.20;;;10.57;;
59302;SDS011;45074;52.764;6.896;2023-10-19T06:33:29;18.80;;;11.18;;
59302;SDS011;45074;52.764;6.896;2023-10-19T06:35:58;20.55;;;10.05;;
59302;SDS011;45074;52.764;6.896;2023-10-19T06:38:24;19.73;;;12.15;;
59302;SDS011;45074;52.764;6.896;2023-10-19T06:40:51;44.17;;;26.75;;
59302;SDS011;45074;52.764;6.896;2023-10-19T06:43:17;18.13;;;12.70;;
59302;SDS011;45074;52.764;6.896;2023-10-19T06:45:46;17.40;;;12.57;;
59302;SDS011;45074;52.764;6.896;2023-10-19T06:48:11;15.88;;;10.75;;
59302;SDS011;45074;52.764;6.896;2023-10-19T06:50:37;14.10;;;10.27;;
59302;SDS011;45074;52.764;6.896;2023-10-19T06:53:04;15.48;;;10.38;;
59302;SDS011;45074;52.764;6.896;2023-10-19T06:55:31;17.10;;;10.38;;
59302;SDS011;45074;52.764;6.896;2023-10-19T06:57:58;15.90;;;10.15;;
59302;SDS011;45074;52.764;6.896;2023-10-19T07:00:25;14.57;;;10.27;;
59302;SDS011;45074;52.764;6.896;2023-10-19T07:02:55;15.15;;;10.07;;
59302;SDS011;45074;52.764;6.896;2023-10-19T07:05:21;14.45;;;10.18;;
59302;SDS011;45074;52.764;6.896;2023-10-19T07:07:54;14.88;;;9.65;;
59302;SDS011;45074;52.764;6.896;2023-10-19T07:10:21;16.85;;;10.63;;
59302;SDS011;45074;52.764;6.896;2023-10-19T07:12:48;16.20;;;10.35;;
59302;SDS011;45074;52.764;6.896;2023-10-19T07:15:18;15.77;;;10.35;;
59302;SDS011;45074;52.764;6.896;2023-10-19T07:17:45;16.33;;;10.15;;
59302;SDS011;45074;52.764;6.896;2023-10-19T07:20:13;14.15;;;9.60;;
59302;SDS011;45074;52.764;6.896;2023-10-19T07:22:56;14.68;;;10.07;;
59302;SDS011;45074;52.764;6.896;2023-10-19T07:25:30;16.52;;;10.38;;
59302;SDS011;45074;52.764;6.896;2023-10-19T07:27:56;15.90;;;10.50;;
59302;SDS011;45074;52.764;6.896;2023-10-19T07:30:24;15.52;;;10.27;;
59302;SDS011;45074;52.764;6.896;2023-10-19T07:32:54;16.52;;;10.35;;
59302;SDS011;45074;52.764;6.896;2023-10-19T07:35:23;14.82;;;10.05;;
59302;SDS011;45074;52.764;6.896;2023-10-19T07:37:50;16.75;;;10.77;;
59302;SDS011;45074;52.764;6.896;2023-10-19T07:40:17;16.05;;;10.48;;
59302;SDS011;45074;52.764;6.896;2023-10-19T07:42:44;14.52;;;10.25;;
59302;SDS011;45074;52.764;6.896;2023-10-19T07:45:10;17.23;;;10.35;;
59302;SDS011;45074;52.764;6.896;2023-10-19T07:47:40;16.43;;;10.70;;
59302;SDS011;45074;52.764;6.896;2023-10-19T07:50:10;16.25;;;10.80;;
59302;SDS011;45074;52.764;6.896;2023-10-19T07:52:43;16.13;;;10.93;;
59302;SDS011;45074;52.764;6.896;2023-10-19T07:55:09;19.20;;;11.38;;
59302;SDS011;45074;52.764;6.896;2023-10-19T07:57:35;16.98;;;11.63;;
59302;SDS011;45074;52.764;6.896;2023-10-19T08:00:01;17.38;;;11.50;;
59302;SDS011;45074;52.764;6.896;2023-10-19T08:02:29;17.00;;;11.45;;
59302;SDS011;45074;52.764;6.896;2023-10-19T08:04:55;19.35;;;11.05;;
59302;SDS011;45074;52.764;6.896;2023-10-19T08:07:21;18.92;;;11.48;;
59302;SDS011;45074;52.764;6.896;2023-10-19T08:09:47;18.08;;;11.68;;
59302;SDS011;45074;52.764;6.896;2023-10-19T08:12:14;17.75;;;11.98;;
59302;SDS011;45074;52.764;6.896;2023-10-19T08:14:40;18.55;;;11.68;;
59302;SDS011;45074;52.764;6.896;2023-10-19T08:17:07;20.05;;;11.75;;
59302;SDS011;45074;52.764;6.896;2023-10-19T08:19:34;17.25;;;11.60;;
59302;SDS011;45074;52.764;6.896;2023-10-19T08:22:00;17.23;;;11.38;;
59302;SDS011;45074;52.764;6.896;2023-10-19T08:24:27;16.25;;;11.32;;
59302;SDS011;45074;52.764;6.896;2023-10-19T08:26:55;16.67;;;10.75;;
59302;SDS011;45074;52.764;6.896;2023-10-19T08:29:21;16.98;;;11.05;;
59302;SDS011;45074;52.764;6.896;2023-10-19T08:31:49;17.52;;;11.60;;
59302;SDS011;45074;52.764;6.896;2023-10-19T08:34:15;17.77;;;11.32;;
59302;SDS011;45074;52.764;6.896;2023-10-19T08:36:42;18.58;;;12.00;;
59302;SDS011;45074;52.764;6.896;2023-10-19T08:39:08;18.80;;;11.27;;
59302;SDS011;45074;52.764;6.896;2023-10-19T08:41:37;18.52;;;11.88;;
59302;SDS011;45074;52.764;6.896;2023-10-19T08:44:07;16.80;;;10.95;;
59302;SDS011;45074;52.764;6.896;2023-10-19T08:46:40;17.92;;;12.23;;
59302;SDS011;45074;52.764;6.896;2023-10-19T08:49:15;17.67;;;11.95;;
59302;SDS011;45074;52.764;6.896;2023-10-19T08:51:43;18.50;;;12.10;;
59302;SDS011;45074;52.764;6.896;2023-10-19T08:54:10;19.33;;;11.93;;
59302;SDS011;45074;52.764;6.896;2023-10-19T08:56:37;21.05;;;13.43;;
59302;SDS011;45074;52.764;6.896;2023-10-19T08:59:04;18.35;;;12.60;;
59302;SDS011;45074;52.764;6.896;2023-10-19T09:01:31;20.50;;;13.20;;
59302;SDS011;45074;52.764;6.896;2023-10-19T09:04:00;21.58;;;13.57;;
59302;SDS011;45074;52.764;6.896;2023-10-19T09:06:26;24.42;;;14.55;;
59302;SDS011;45074;52.764;6.896;2023-10-19T09:08:54;23.30;;;14.82;;
59302;SDS011;45074;52.764;6.896;2023-10-19T09:11:22;21.60;;;14.55;;
59302;SDS011;45074;52.764;6.896;2023-10-19T09:13:53;23.73;;;14.93;;
59302;SDS011;45074;52.764;6.896;2023-10-19T09:16:19;23.88;;;15.27;;
59302;SDS011;45074;52.764;6.896;2023-10-19T09:18:49;23.38;;;14.43;;
59302;SDS011;45074;52.764;6.896;2023-10-19T09:21:17;21.15;;;13.90;;
59302;SDS011;45074;52.764;6.896;2023-10-19T09:23:51;21.23;;;13.90;;
59302;SDS011;45074;52.764;6.896;2023-10-19T09:26:18;22.70;;;14.27;;
59302;SDS011;45074;52.764;6.896;2023-10-19T09:28:48;22.45;;;13.95;;
59302;SDS011;45074;52.764;6.896;2023-10-19T09:31:15;22.20;;;14.60;;
59302;SDS011;45074;52.764;6.896;2023-10-19T09:33:43;22.83;;;14.30;;
59302;SDS011;45074;52.764;6.896;2023-10-19T09:36:09;22.02;;;14.52;;
59302;SDS011;45074;52.764;6.896;2023-10-19T09:38:45;22.23;;;14.18;;
59302;SDS011;45074;52.764;6.896;2023-10-19T09:41:18;22.52;;;14.73;;
59302;SDS011;45074;52.764;6.896;2023-10-19T09:43:46;23.13;;;14.32;;
59302;SDS011;45074;52.764;6.896;2023-10-19T09:46:18;21.77;;;14.30;;
59302;SDS011;45074;52.764;6.896;2023-10-19T09:48:54;21.15;;;14.00;;
59302;SDS011;45074;52.764;6.896;2023-10-19T09:51:20;20.33;;;12.93;;
59302;SDS011;45074;52.764;6.896;2023-10-19T09:56:30;22.85;;;14.00;;
59302;SDS011;45074;52.764;6.896;2023-10-19T09:59:11;21.13;;;13.82;;
59302;SDS011;45074;52.764;6.896;2023-10-19T10:04:31;20.75;;;14.00;;
59302;SDS011;45074;52.764;6.896;2023-10-19T10:06:58;20.35;;;13.77;;
59302;SDS011;45074;52.764;6.896;2023-10-19T10:09:28;22.75;;;14.43;;
59302;SDS011;45074;52.764;6.896;2023-10-19T10:11:54;22.15;;;14.95;;
59302;SDS011;45074;52.764;6.896;2023-10-19T10:14:25;21.98;;;15.40;;
59302;SDS011;45074;52.764;6.896;2023-10-19T10:17:00;24.83;;;15.43;;
59302;SDS011;45074;52.764;6.896;2023-10-19T10:19:34;24.33;;;15.35;;
59302;SDS011;45074;52.764;6.896;2023-10-19T10:22:10;22.48;;;15.10;;
59302;SDS011;45074;52.764;6.896;2023-10-19T10:24:46;24.45;;;15.93;;
59302;SDS011;45074;52.764;6.896;2023-10-19T10:27:13;23.50;;;15.75;;
59302;SDS011;45074;52.764;6.896;2023-10-19T10:29:57;24.02;;;15.60;;
59302;SDS011;45074;52.764;6.896;2023-10-19T10:38:18;24.48;;;16.25;;
59302;SDS011;45074;52.764;6.896;2023-10-19T10:40:51;23.27;;;16.23;;
59302;SDS011;45074;52.764;6.896;2023-10-19T10:43:17;22.48;;;15.70;;
59302;SDS011;45074;52.764;6.896;2023-10-19T10:45:43;23.33;;;15.85;;
59302;SDS011;45074;52.764;6.896;2023-10-19T10:48:13;23.52;;;16.05;;
59302;SDS011;45074;52.764;6.896;2023-10-19T10:50:39;23.95;;;16.00;;
59302;SDS011;45074;52.764;6.896;2023-10-19T10:53:07;23.40;;;15.43;;
59302;SDS011;45074;52.764;6.896;2023-10-19T10:55:33;23.33;;;15.82;;
59302;SDS011;45074;52.764;6.896;2023-10-19T10:57:59;22.35;;;15.77;;
59302;SDS011;45074;52.764;6.896;2023-10-19T11:00:25;23.02;;;16.83;;
59302;SDS011;45074;52.764;6.896;2023-10-19T11:02:59;23.40;;;15.80;;
59302;SDS011;45074;52.764;6.896;2023-10-19T11:05:35;22.83;;;16.10;;
59302;SDS011;45074;52.764;6.896;2023-10-19T11:10:29;23.90;;;16.27;;
59302;SDS011;45074;52.764;6.896;2023-10-19T11:13:05;22.17;;;14.88;;
59302;SDS011;45074;52.764;6.896;2023-10-19T11:15:33;20.88;;;14.50;;
59302;SDS011;45074;52.764;6.896;2023-10-19T11:17:59;22.67;;;14.90;;
59302;SDS011;45074;52.764;6.896;2023-10-19T11:20:26;21.80;;;15.45;;
59302;SDS011;45074;52.764;6.896;2023-10-19T11:22:53;20.60;;;15.27;;
59302;SDS011;45074;52.764;6.896;2023-10-19T11:25:26;22.40;;;15.15;;
59302;SDS011;45074;52.764;6.896;2023-10-19T11:27:55;19.38;;;15.38;;
59302;SDS011;45074;52.764;6.896;2023-10-19T11:30:29;23.60;;;15.68;;
59302;SDS011;45074;52.764;6.896;2023-10-19T11:32:59;20.40;;;15.27;;
59302;SDS011;45074;52.764;6.896;2023-10-19T11:35:27;21.27;;;15.00;;
59302;SDS011;45074;52.764;6.896;2023-10-19T11:37:55;21.65;;;15.05;;
59302;SDS011;45074;52.764;6.896;2023-10-19T11:40:25;21.65;;;15.80;;
59302;SDS011;45074;52.764;6.896;2023-10-19T11:42:55;22.15;;;15.60;;
59302;SDS011;45074;52.764;6.896;2023-10-19T11:45:25;24.15;;;16.52;;
59302;SDS011;45074;52.764;6.896;2023-10-19T11:47:51;21.75;;;15.80;;
59302;SDS011;45074;52.764;6.896;2023-10-19T11:50:18;24.85;;;16.45;;
59302;SDS011;45074;52.764;6.896;2023-10-19T11:52:44;23.05;;;15.93;;
59302;SDS011;45074;52.764;6.896;2023-10-19T11:55:14;21.83;;;16.08;;
59302;SDS011;45074;52.764;6.896;2023-10-19T11:57:44;22.23;;;15.65;;
59302;SDS011;45074;52.764;6.896;2023-10-19T12:00:10;23.48;;;16.17;;
59302;SDS011;45074;52.764;6.896;2023-10-19T12:02:45;24.25;;;16.65;;
59302;SDS011;45074;52.764;6.896;2023-10-19T12:05:11;21.80;;;15.05;;
59302;SDS011;45074;52.764;6.896;2023-10-19T12:07:37;20.17;;;15.00;;
59302;SDS011;45074;52.764;6.896;2023-10-19T12:10:04;19.90;;;14.90;;
59302;SDS011;45074;52.764;6.896;2023-10-19T12:12:34;24.02;;;15.23;;
59302;SDS011;45074;52.764;6.896;2023-10-19T12:15:01;21.27;;;15.07;;
59302;SDS011;45074;52.764;6.896;2023-10-19T12:17:27;21.73;;;15.80;;
59302;SDS011;45074;52.764;6.896;2023-10-19T12:19:55;20.90;;;14.55;;
59302;SDS011;45074;52.764;6.896;2023-10-19T12:22:21;20.92;;;14.18;;
59302;SDS011;45074;52.764;6.896;2023-10-19T12:24:47;21.67;;;15.73;;
59302;SDS011;45074;52.764;6.896;2023-10-19T12:27:13;34.50;;;31.10;;
59302;SDS011;45074;52.764;6.896;2023-10-19T12:29:39;22.80;;;15.65;;
59302;SDS011;45074;52.764;6.896;2023-10-19T12:32:05;21.55;;;15.48;;
59302;SDS011;45074;52.764;6.896;2023-10-19T12:34:32;21.10;;;15.18;;
59302;SDS011;45074;52.764;6.896;2023-10-19T12:36:58;22.10;;;15.38;;
59302;SDS011;45074;52.764;6.896;2023-10-19T12:39:24;24.05;;;16.30;;
59302;SDS011;45074;52.764;6.896;2023-10-19T12:42:09;20.67;;;15.30;;
59302;SDS011;45074;52.764;6.896;2023-10-19T12:44:35;25.00;;;16.08;;
59302;SDS011;45074;52.764;6.896;2023-10-19T12:47:05;23.23;;;16.33;;
59302;SDS011;45074;52.764;6.896;2023-10-19T12:49:41;24.08;;;16.23;;
59302;SDS011;45074;52.764;6.896;2023-10-19T12:52:08;24.08;;;16.70;;
59302;SDS011;45074;52.764;6.896;2023-10-19T12:54:35;22.38;;;15.88;;
59302;SDS011;45074;52.764;6.896;2023-10-19T12:57:02;22.83;;;15.90;;
59302;SDS011;45074;52.764;6.896;2023-10-19T12:59:29;22.50;;;15.75;;
59302;SDS011;45074;52.764;6.896;2023-10-19T13:01:55;23.70;;;16.42;;
59302;SDS011;45074;52.764;6.896;2023-10-19T13:04:23;22.40;;;15.77;;
59302;SDS011;45074;52.764;6.896;2023-10-19T13:06:50;23.58;;;16.08;;
59302;SDS011;45074;52.764;6.896;2023-10-19T13:09:17;21.02;;;16.10;;
59302;SDS011;45074;52.764;6.896;2023-10-19T13:11:47;22.50;;;15.83;;
59302;SDS011;45074;52.764;6.896;2023-10-19T13:14:17;22.27;;;16.50;;
59302;SDS011;45074;52.764;6.896;2023-10-19T13:16:43;24.40;;;16.60;;
59302;SDS011;45074;52.764;6.896;2023-10-19T13:19:09;22.15;;;16.15;;
59302;SDS011;45074;52.764;6.896;2023-10-19T13:21:39;24.02;;;16.27;;
59302;SDS011;45074;52.764;6.896;2023-10-19T13:24:07;23.67;;;16.38;;
59302;SDS011;45074;52.764;6.896;2023-10-19T13:26:33;22.85;;;16.13;;
59302;SDS011;45074;52.764;6.896;2023-10-19T13:28:59;24.65;;;16.75;;
59302;SDS011;45074;52.764;6.896;2023-10-19T13:31:26;20.95;;;15.27;;
59302;SDS011;45074;52.764;6.896;2023-10-19T13:33:52;21.75;;;14.73;;
59302;SDS011;45074;52.764;6.896;2023-10-19T13:36:19;21.67;;;15.43;;
59302;SDS011;45074;52.764;6.896;2023-10-19T13:38:45;21.67;;;14.52;;
59302;SDS011;45074;52.764;6.896;2023-10-19T13:41:11;21.58;;;15.18;;
59302;SDS011;45074;52.764;6.896;2023-10-19T13:43:39;20.55;;;14.85;;
59302;SDS011;45074;52.764;6.896;2023-10-19T13:46:07;23.23;;;15.88;;
59302;SDS011;45074;52.764;6.896;2023-10-19T13:48:33;26.30;;;17.77;;
59302;SDS011;45074;52.764;6.896;2023-10-19T13:50:59;31.33;;;20.00;;
59302;SDS011;45074;52.764;6.896;2023-10-19T13:53:25;30.45;;;20.33;;
59302;SDS011;45074;52.764;6.896;2023-10-19T13:55:52;29.77;;;19.83;;
59302;SDS011;45074;52.764;6.896;2023-10-19T13:58:18;25.73;;;17.95;;
59302;SDS011;45074;52.764;6.896;2023-10-19T14:00:44;24.00;;;18.48;;
59302;SDS011;45074;52.764;6.896;2023-10-19T14:03:11;24.38;;;16.75;;
59302;SDS011;45074;52.764;6.896;2023-10-19T14:05:44;24.17;;;16.52;;
59302;SDS011;45074;52.764;6.896;2023-10-19T14:08:13;24.17;;;17.65;;
59302;SDS011;45074;52.764;6.896;2023-10-19T14:10:39;22.58;;;16.02;;
59302;SDS011;45074;52.764;6.896;2023-10-19T14:13:08;24.20;;;16.77;;
59302;SDS011;45074;52.764;6.896;2023-10-19T14:15:36;23.77;;;15.90;;
59302;SDS011;45074;52.764;6.896;2023-10-19T14:18:02;22.85;;;15.30;;
59302;SDS011;45074;52.764;6.896;2023-10-19T14:20:29;21.98;;;14.38;;
59302;SDS011;45074;52.764;6.896;2023-10-19T14:22:59;21.90;;;15.07;;
59302;SDS011;45074;52.764;6.896;2023-10-19T14:25:25;21.75;;;15.02;;
59302;SDS011;45074;52.764;6.896;2023-10-19T14:27:52;21.77;;;15.18;;
59302;SDS011;45074;52.764;6.896;2023-10-19T14:30:24;21.48;;;14.80;;
59302;SDS011;45074;52.764;6.896;2023-10-19T14:32:53;21.83;;;14.93;;
59302;SDS011;45074;52.764;6.896;2023-10-19T14:35:20;22.17;;;15.23;;
59302;SDS011;45074;52.764;6.896;2023-10-19T14:37:47;21.65;;;14.93;;
59302;SDS011;45074;52.764;6.896;2023-10-19T14:40:19;20.30;;;14.20;;
59302;SDS011;45074;52.764;6.896;2023-10-19T14:42:46;22.45;;;14.60;;
59302;SDS011;45074;52.764;6.896;2023-10-19T14:45:14;20.88;;;14.82;;